sensor_id;sensor_type;location;lat;lon;timestamp;temperature;humidity
54178;DHT22;40085;53.004;6.770;2022-12-07T00:01:17;2.90;99.90
54178;DHT22;40085;53.004;6.770;2022-12-07T00:03:44;2.90;99.90
54178;DHT22;40085;53.004;6.770;2022-12-07T00:06:12;2.90;99.90
54178;DHT22;40085;53.004;6.770;2022-12-07T00:08:38;2.90;99.90
54178;DHT22;40085;53.004;6.770;2022-12-07T00:11:06;3.00;99.90
54178;DHT22;40085;53.004;6.770;2022-12-07T00:13:33;3.00;99.90
54178;DHT22;40085;53.004;6.770;2022-12-07T00:16:04;3.10;99.90
54178;DHT22;40085;53.004;6.770;2022-12-07T00:18:30;3.20;99.90
54178;DHT22;40085;53.004;6.770;2022-12-07T00:21:04;3.20;99.90
54178;DHT22;40085;53.004;6.770;2022-12-07T00:23:30;3.20;99.90
54178;DHT22;40085;53.004;6.770;2022-12-07T00:25:55;3.20;99.90
54178;DHT22;40085;53.004;6.770;2022-12-07T00:28:21;3.10;99.90
54178;DHT22;40085;53.004;6.770;2022-12-07T00:30:47;3.20;99.90
54178;DHT22;40085;53.004;6.770;2022-12-07T00:33:12;3.20;99.90
54178;DHT22;40085;53.004;6.770;2022-12-07T00:35:38;3.20;99.90
54178;DHT22;40085;53.004;6.770;2022-12-07T00:38:03;3.20;99.90
54178;DHT22;40085;53.004;6.770;2022-12-07T00:40:29;3.20;99.90
54178;DHT22;40085;53.004;6.770;2022-12-07T00:42:54;3.20;99.90
54178;DHT22;40085;53.004;6.770;2022-12-07T00:45:20;3.20;99.90
54178;DHT22;40085;53.004;6.770;2022-12-07T00:47:45;3.10;99.90
54178;DHT22;40085;53.004;6.770;2022-12-07T00:50:11;3.20;99.90
54178;DHT22;40085;53.004;6.770;2022-12-07T00:52:36;3.10;99.90
54178;DHT22;40085;53.004;6.770;2022-12-07T00:55:02;3.10;99.90
54178;DHT22;40085;53.004;6.770;2022-12-07T00:57:28;3.10;99.90
54178;DHT22;40085;53.004;6.770;2022-12-07T00:59:55;3.00;99.90
54178;DHT22;40085;53.004;6.770;2022-12-07T01:02:23;3.00;99.90
54178;DHT22;40085;53.004;6.770;2022-12-07T01:04:48;3.00;99.90
54178;DHT22;40085;53.004;6.770;2022-12-07T01:07:14;3.10;99.90
54178;DHT22;40085;53.004;6.770;2022-12-07T01:09:39;3.10;99.90
54178;DHT22;40085;53.004;6.770;2022-12-07T01:12:05;3.10;99.90
54178;DHT22;40085;53.004;6.770;2022-12-07T01:14:30;3.30;99.90
54178;DHT22;40085;53.004;6.770;2022-12-07T01:16:56;3.10;99.90
54178;DHT22;40085;53.004;6.770;2022-12-07T01:19:21;3.10;99.90
54178;DHT22;40085;53.004;6.770;2022-12-07T01:21:47;3.00;99.90
54178;DHT22;40085;53.004;6.770;2022-12-07T01:24:13;3.10;99.90
54178;DHT22;40085;53.004;6.770;2022-12-07T01:26:38;3.10;99.90
54178;DHT22;40085;53.004;6.770;2022-12-07T01:29:04;3.10;99.90
54178;DHT22;40085;53.004;6.770;2022-12-07T01:31:30;3.10;99.90
54178;DHT22;40085;53.004;6.770;2022-12-07T01:33:57;3.10;99.90
54178;DHT22;40085;53.004;6.770;2022-12-07T01:36:34;3.10;99.90
54178;DHT22;40085;53.004;6.770;2022-12-07T01:39:05;3.10;99.90
54178;DHT22;40085;53.004;6.770;2022-12-07T01:41:33;3.10;99.90
54178;DHT22;40085;53.004;6.770;2022-12-07T01:44:21;3.10;99.90
54178;DHT22;40085;53.004;6.770;2022-12-07T01:46:48;3.00;99.90
54178;DHT22;40085;53.004;6.770;2022-12-07T01:49:33;3.00;99.90
54178;DHT22;40085;53.004;6.770;2022-12-07T01:52:24;3.00;99.90
54178;DHT22;40085;53.004;6.770;2022-12-07T01:54:54;3.00;99.90
54178;DHT22;40085;53.004;6.770;2022-12-07T01:57:21;2.90;99.90
54178;DHT22;40085;53.004;6.770;2022-12-07T01:59:49;2.90;99.90
54178;DHT22;40085;53.004;6.770;2022-12-07T02:02:24;2.90;99.90
54178;DHT22;40085;53.004;6.770;2022-12-07T02:04:52;3.00;99.90
54178;DHT22;40085;53.004;6.770;2022-12-07T02:07:20;3.00;99.90
54178;DHT22;40085;53.004;6.770;2022-12-07T02:09:46;3.00;99.90
54178;DHT22;40085;53.004;6.770;2022-12-07T02:12:11;3.10;99.90
54178;DHT22;40085;53.004;6.770;2022-12-07T02:14:37;3.20;99.90
54178;DHT22;40085;53.004;6.770;2022-12-07T02:17:28;3.20;99.90
54178;DHT22;40085;53.004;6.770;2022-12-07T02:20:04;3.30;99.90
54178;DHT22;40085;53.004;6.770;2022-12-07T02:25:50;3.30;99.90
54178;DHT22;40085;53.004;6.770;2022-12-07T02:28:31;3.30;99.90
54178;DHT22;40085;53.004;6.770;2022-12-07T02:31:03;3.20;99.90
54178;DHT22;40085;53.004;6.770;2022-12-07T02:33:33;3.20;99.90
54178;DHT22;40085;53.004;6.770;2022-12-07T02:36:06;3.20;99.90
54178;DHT22;40085;53.004;6.770;2022-12-07T02:38:38;3.20;99.90
54178;DHT22;40085;53.004;6.770;2022-12-07T02:41:26;3.20;99.90
54178;DHT22;40085;53.004;6.770;2022-12-07T02:43:57;3.20;99.90
54178;DHT22;40085;53.004;6.770;2022-12-07T02:46:28;3.20;99.90
54178;DHT22;40085;53.004;6.770;2022-12-07T02:48:55;3.20;99.90
54178;DHT22;40085;53.004;6.770;2022-12-07T02:51:21;3.20;99.90
54178;DHT22;40085;53.004;6.770;2022-12-07T02:53:47;3.20;99.90
54178;DHT22;40085;53.004;6.770;2022-12-07T02:56:36;3.20;99.90
54178;DHT22;40085;53.004;6.770;2022-12-07T02:59:17;3.20;99.90
54178;DHT22;40085;53.004;6.770;2022-12-07T03:04:47;3.20;99.90
54178;DHT22;40085;53.004;6.770;2022-12-07T03:07:29;3.30;99.90
54178;DHT22;40085;53.004;6.770;2022-12-07T03:10:22;3.30;99.90
54178;DHT22;40085;53.004;6.770;2022-12-07T03:15:56;3.40;99.90
54178;DHT22;40085;53.004;6.770;2022-12-07T03:18:26;3.40;99.90
54178;DHT22;40085;53.004;6.770;2022-12-07T03:20:55;3.50;99.90
54178;DHT22;40085;53.004;6.770;2022-12-07T03:23:23;3.50;99.90
54178;DHT22;40085;53.004;6.770;2022-12-07T03:25:56;3.40;99.90
54178;DHT22;40085;53.004;6.770;2022-12-07T03:28:27;3.50;99.90
54178;DHT22;40085;53.004;6.770;2022-12-07T03:31:24;3.50;99.90
54178;DHT22;40085;53.004;6.770;2022-12-07T03:34:18;3.60;99.90
54178;DHT22;40085;53.004;6.770;2022-12-07T03:37:07;3.60;99.90
54178;DHT22;40085;53.004;6.770;2022-12-07T03:39:39;3.50;99.90
54178;DHT22;40085;53.004;6.770;2022-12-07T03:42:06;3.50;99.90
54178;DHT22;40085;53.004;6.770;2022-12-07T03:44:33;3.40;99.90
54178;DHT22;40085;53.004;6.770;2022-12-07T03:49:37;3.50;99.90
54178;DHT22;40085;53.004;6.770;2022-12-07T03:54:47;3.50;99.90
54178;DHT22;40085;53.004;6.770;2022-12-07T03:57:14;3.60;99.90
54178;DHT22;40085;53.004;6.770;2022-12-07T03:59:40;3.60;99.90
54178;DHT22;40085;53.004;6.770;2022-12-07T04:02:07;3.70;99.90
54178;DHT22;40085;53.004;6.770;2022-12-07T04:04:33;3.90;99.90
54178;DHT22;40085;53.004;6.770;2022-12-07T04:07:00;3.70;99.90
54178;DHT22;40085;53.004;6.770;2022-12-07T04:09:25;3.60;99.90
54178;DHT22;40085;53.004;6.770;2022-12-07T04:11:51;3.60;99.90
54178;DHT22;40085;53.004;6.770;2022-12-07T04:14:17;3.60;99.90
54178;DHT22;40085;53.004;6.770;2022-12-07T04:16:53;3.60;99.90
54178;DHT22;40085;53.004;6.770;2022-12-07T04:19:20;3.70;99.90
54178;DHT22;40085;53.004;6.770;2022-12-07T04:21:47;3.70;99.90
54178;DHT22;40085;53.004;6.770;2022-12-07T04:24:13;3.70;99.90
54178;DHT22;40085;53.004;6.770;2022-12-07T04:26:39;3.70;99.90
54178;DHT22;40085;53.004;6.770;2022-12-07T04:29:05;3.70;99.90
54178;DHT22;40085;53.004;6.770;2022-12-07T04:31:31;3.60;99.90
54178;DHT22;40085;53.004;6.770;2022-12-07T04:33:56;3.60;99.90
54178;DHT22;40085;53.004;6.770;2022-12-07T04:36:22;3.50;99.90
54178;DHT22;40085;53.004;6.770;2022-12-07T04:38:48;3.50;99.90
54178;DHT22;40085;53.004;6.770;2022-12-07T04:41:13;3.40;99.90
54178;DHT22;40085;53.004;6.770;2022-12-07T04:43:39;3.30;99.90
54178;DHT22;40085;53.004;6.770;2022-12-07T04:46:05;3.20;99.90
54178;DHT22;40085;53.004;6.770;2022-12-07T04:48:30;3.20;99.90
54178;DHT22;40085;53.004;6.770;2022-12-07T04:50:56;3.10;99.90
54178;DHT22;40085;53.004;6.770;2022-12-07T04:53:22;3.10;99.90
54178;DHT22;40085;53.004;6.770;2022-12-07T04:55:47;3.20;99.90
54178;DHT22;40085;53.004;6.770;2022-12-07T04:58:13;3.10;99.90
54178;DHT22;40085;53.004;6.770;2022-12-07T05:03:05;3.00;99.90
54178;DHT22;40085;53.004;6.770;2022-12-07T05:05:31;2.90;99.90
54178;DHT22;40085;53.004;6.770;2022-12-07T05:07:57;2.90;99.90
54178;DHT22;40085;53.004;6.770;2022-12-07T05:10:23;3.30;99.90
54178;DHT22;40085;53.004;6.770;2022-12-07T05:12:49;2.90;99.90
54178;DHT22;40085;53.004;6.770;2022-12-07T05:15:15;2.90;99.90
54178;DHT22;40085;53.004;6.770;2022-12-07T05:17:41;3.00;99.90
54178;DHT22;40085;53.004;6.770;2022-12-07T05:20:07;3.10;99.90
54178;DHT22;40085;53.004;6.770;2022-12-07T05:22:33;3.20;99.90
54178;DHT22;40085;53.004;6.770;2022-12-07T05:24:59;3.20;99.90
54178;DHT22;40085;53.004;6.770;2022-12-07T05:27:25;3.20;99.90
54178;DHT22;40085;53.004;6.770;2022-12-07T05:29:51;3.10;99.90
54178;DHT22;40085;53.004;6.770;2022-12-07T05:32:17;3.10;99.90
54178;DHT22;40085;53.004;6.770;2022-12-07T05:34:42;3.00;99.90
54178;DHT22;40085;53.004;6.770;2022-12-07T05:37:08;2.90;99.90
54178;DHT22;40085;53.004;6.770;2022-12-07T05:39:33;2.90;99.90
54178;DHT22;40085;53.004;6.770;2022-12-07T05:41:59;2.80;99.90
54178;DHT22;40085;53.004;6.770;2022-12-07T05:44:45;2.80;99.90
54178;DHT22;40085;53.004;6.770;2022-12-07T05:47:12;2.70;99.90
54178;DHT22;40085;53.004;6.770;2022-12-07T05:49:38;2.70;99.90
54178;DHT22;40085;53.004;6.770;2022-12-07T05:52:04;2.70;99.90
54178;DHT22;40085;53.004;6.770;2022-12-07T05:54:30;2.70;99.90
54178;DHT22;40085;53.004;6.770;2022-12-07T05:56:55;2.60;99.90
54178;DHT22;40085;53.004;6.770;2022-12-07T05:59:21;2.70;99.90
54178;DHT22;40085;53.004;6.770;2022-12-07T06:01:59;2.50;99.90
54178;DHT22;40085;53.004;6.770;2022-12-07T06:04:26;2.50;99.90
54178;DHT22;40085;53.004;6.770;2022-12-07T06:06:52;2.60;99.90
54178;DHT22;40085;53.004;6.770;2022-12-07T06:09:19;2.60;99.90
54178;DHT22;40085;53.004;6.770;2022-12-07T06:11:45;2.50;99.90
54178;DHT22;40085;53.004;6.770;2022-12-07T06:14:29;2.60;99.90
54178;DHT22;40085;53.004;6.770;2022-12-07T06:16:55;2.50;99.90
54178;DHT22;40085;53.004;6.770;2022-12-07T06:19:20;2.50;99.90
54178;DHT22;40085;53.004;6.770;2022-12-07T06:21:46;2.50;99.90
54178;DHT22;40085;53.004;6.770;2022-12-07T06:24:13;2.40;99.90
54178;DHT22;40085;53.004;6.770;2022-12-07T06:26:39;2.40;99.90
54178;DHT22;40085;53.004;6.770;2022-12-07T06:29:05;2.40;99.90
54178;DHT22;40085;53.004;6.770;2022-12-07T06:31:31;2.40;99.90
54178;DHT22;40085;53.004;6.770;2022-12-07T06:34:01;2.40;99.90
54178;DHT22;40085;53.004;6.770;2022-12-07T06:36:27;2.40;99.90
54178;DHT22;40085;53.004;6.770;2022-12-07T06:38:54;2.40;99.90
54178;DHT22;40085;53.004;6.770;2022-12-07T06:41:20;2.40;99.90
54178;DHT22;40085;53.004;6.770;2022-12-07T06:43:45;2.50;99.90
54178;DHT22;40085;53.004;6.770;2022-12-07T06:46:12;2.50;99.90
54178;DHT22;40085;53.004;6.770;2022-12-07T06:48:37;2.60;99.90
54178;DHT22;40085;53.004;6.770;2022-12-07T06:51:03;2.70;99.90
54178;DHT22;40085;53.004;6.770;2022-12-07T06:53:29;2.70;99.90
54178;DHT22;40085;53.004;6.770;2022-12-07T06:55:54;2.70;99.90
54178;DHT22;40085;53.004;6.770;2022-12-07T06:58:20;2.70;99.90
54178;DHT22;40085;53.004;6.770;2022-12-07T07:00:47;2.80;99.90
54178;DHT22;40085;53.004;6.770;2022-12-07T07:03:13;2.80;99.90
54178;DHT22;40085;53.004;6.770;2022-12-07T07:05:38;2.80;99.90
54178;DHT22;40085;53.004;6.770;2022-12-07T07:08:04;2.70;99.90
54178;DHT22;40085;53.004;6.770;2022-12-07T07:10:30;2.70;99.90
54178;DHT22;40085;53.004;6.770;2022-12-07T07:12:56;2.70;99.90
54178;DHT22;40085;53.004;6.770;2022-12-07T07:15:21;2.60;99.90
54178;DHT22;40085;53.004;6.770;2022-12-07T07:17:47;2.60;99.90
54178;DHT22;40085;53.004;6.770;2022-12-07T07:20:12;2.60;99.90
54178;DHT22;40085;53.004;6.770;2022-12-07T07:22:38;2.60;99.90
54178;DHT22;40085;53.004;6.770;2022-12-07T07:25:04;2.50;99.90
54178;DHT22;40085;53.004;6.770;2022-12-07T07:27:29;2.50;99.90
54178;DHT22;40085;53.004;6.770;2022-12-07T07:29:55;2.50;99.90
54178;DHT22;40085;53.004;6.770;2022-12-07T07:32:20;2.40;99.90
54178;DHT22;40085;53.004;6.770;2022-12-07T07:34:47;2.40;99.90
54178;DHT22;40085;53.004;6.770;2022-12-07T07:37:13;2.40;99.90
54178;DHT22;40085;53.004;6.770;2022-12-07T07:39:39;2.50;99.90
54178;DHT22;40085;53.004;6.770;2022-12-07T07:42:05;2.50;99.90
54178;DHT22;40085;53.004;6.770;2022-12-07T07:44:31;2.60;99.90
54178;DHT22;40085;53.004;6.770;2022-12-07T07:46:56;2.60;99.90
54178;DHT22;40085;53.004;6.770;2022-12-07T07:49:22;2.70;99.90
54178;DHT22;40085;53.004;6.770;2022-12-07T07:51:47;2.80;99.90
54178;DHT22;40085;53.004;6.770;2022-12-07T07:54:13;2.90;99.90
54178;DHT22;40085;53.004;6.770;2022-12-07T07:56:38;2.80;99.90
54178;DHT22;40085;53.004;6.770;2022-12-07T07:59:04;2.90;99.90
54178;DHT22;40085;53.004;6.770;2022-12-07T08:01:30;2.90;99.90
54178;DHT22;40085;53.004;6.770;2022-12-07T08:03:55;2.90;99.90
54178;DHT22;40085;53.004;6.770;2022-12-07T08:06:21;2.90;99.90
54178;DHT22;40085;53.004;6.770;2022-12-07T08:08:46;2.80;99.90
54178;DHT22;40085;53.004;6.770;2022-12-07T08:11:12;2.80;99.90
54178;DHT22;40085;53.004;6.770;2022-12-07T08:13:37;2.80;99.90
54178;DHT22;40085;53.004;6.770;2022-12-07T08:16:08;2.80;99.90
54178;DHT22;40085;53.004;6.770;2022-12-07T08:18:41;2.70;99.90
54178;DHT22;40085;53.004;6.770;2022-12-07T08:21:11;2.70;99.90
54178;DHT22;40085;53.004;6.770;2022-12-07T08:23:37;2.70;99.90
54178;DHT22;40085;53.004;6.770;2022-12-07T08:26:06;2.60;99.90
54178;DHT22;40085;53.004;6.770;2022-12-07T08:28:32;2.60;99.90
54178;DHT22;40085;53.004;6.770;2022-12-07T08:31:06;2.60;99.90
54178;DHT22;40085;53.004;6.770;2022-12-07T08:33:32;2.60;99.90
54178;DHT22;40085;53.004;6.770;2022-12-07T08:36:05;2.60;99.90
54178;DHT22;40085;53.004;6.770;2022-12-07T08:38:31;2.60;99.90
54178;DHT22;40085;53.004;6.770;2022-12-07T08:40:58;2.60;99.90
54178;DHT22;40085;53.004;6.770;2022-12-07T08:43:24;2.70;99.90
54178;DHT22;40085;53.004;6.770;2022-12-07T08:46:38;2.70;99.90
54178;DHT22;40085;53.004;6.770;2022-12-07T08:48:42;2.80;99.90
54178;DHT22;40085;53.004;6.770;2022-12-07T08:51:10;2.80;99.90
54178;DHT22;40085;53.004;6.770;2022-12-07T08:53:37;2.90;99.90
54178;DHT22;40085;53.004;6.770;2022-12-07T08:56:05;2.90;99.90
54178;DHT22;40085;53.004;6.770;2022-12-07T08:58:32;2.90;99.90
54178;DHT22;40085;53.004;6.770;2022-12-07T09:00:58;3.00;99.90
54178;DHT22;40085;53.004;6.770;2022-12-07T09:03:24;3.00;99.90
54178;DHT22;40085;53.004;6.770;2022-12-07T09:08:15;3.10;99.90
54178;DHT22;40085;53.004;6.770;2022-12-07T09:10:41;3.10;99.90
54178;DHT22;40085;53.004;6.770;2022-12-07T09:13:07;3.10;99.90
54178;DHT22;40085;53.004;6.770;2022-12-07T09:15:33;3.10;99.90
54178;DHT22;40085;53.004;6.770;2022-12-07T09:17:58;3.30;99.90
54178;DHT22;40085;53.004;6.770;2022-12-07T09:20:24;3.30;99.90
54178;DHT22;40085;53.004;6.770;2022-12-07T09:22:50;3.30;99.90
54178;DHT22;40085;53.004;6.770;2022-12-07T09:25:15;3.30;99.90
54178;DHT22;40085;53.004;6.770;2022-12-07T09:27:41;3.20;99.90
54178;DHT22;40085;53.004;6.770;2022-12-07T09:30:07;3.30;99.90
54178;DHT22;40085;53.004;6.770;2022-12-07T09:32:33;3.30;99.90
54178;DHT22;40085;53.004;6.770;2022-12-07T09:34:58;3.30;99.90
54178;DHT22;40085;53.004;6.770;2022-12-07T09:37:24;3.40;99.90
54178;DHT22;40085;53.004;6.770;2022-12-07T09:39:49;3.40;99.90
54178;DHT22;40085;53.004;6.770;2022-12-07T09:42:53;3.50;99.90
54178;DHT22;40085;53.004;6.770;2022-12-07T09:45:38;3.70;99.90
54178;DHT22;40085;53.004;6.770;2022-12-07T09:48:04;3.80;99.90
54178;DHT22;40085;53.004;6.770;2022-12-07T09:50:30;4.00;99.90
54178;DHT22;40085;53.004;6.770;2022-12-07T09:53:09;4.20;99.90
54178;DHT22;40085;53.004;6.770;2022-12-07T09:55:36;4.20;99.90
54178;DHT22;40085;53.004;6.770;2022-12-07T09:58:03;4.30;99.90
54178;DHT22;40085;53.004;6.770;2022-12-07T10:00:29;4.40;99.90
54178;DHT22;40085;53.004;6.770;2022-12-07T10:03:02;4.40;99.90
54178;DHT22;40085;53.004;6.770;2022-12-07T10:05:30;4.40;99.90
54178;DHT22;40085;53.004;6.770;2022-12-07T10:07:57;4.40;99.90
54178;DHT22;40085;53.004;6.770;2022-12-07T10:10:34;4.40;99.90
54178;DHT22;40085;53.004;6.770;2022-12-07T10:13:15;4.50;99.90
54178;DHT22;40085;53.004;6.770;2022-12-07T10:15:53;4.50;99.90
54178;DHT22;40085;53.004;6.770;2022-12-07T10:18:37;4.40;99.90
54178;DHT22;40085;53.004;6.770;2022-12-07T10:21:13;4.50;99.90
54178;DHT22;40085;53.004;6.770;2022-12-07T10:24:00;4.50;99.90
54178;DHT22;40085;53.004;6.770;2022-12-07T10:26:33;4.60;99.90
54178;DHT22;40085;53.004;6.770;2022-12-07T10:29:04;4.60;99.90
54178;DHT22;40085;53.004;6.770;2022-12-07T10:31:40;4.90;99.90
54178;DHT22;40085;53.004;6.770;2022-12-07T10:34:22;4.60;99.90
54178;DHT22;40085;53.004;6.770;2022-12-07T10:36:50;4.60;99.90
54178;DHT22;40085;53.004;6.770;2022-12-07T10:39:19;4.60;99.90
54178;DHT22;40085;53.004;6.770;2022-12-07T10:41:58;4.60;99.90
54178;DHT22;40085;53.004;6.770;2022-12-07T10:44:26;4.60;99.90
54178;DHT22;40085;53.004;6.770;2022-12-07T10:53:14;4.70;99.90
54178;DHT22;40085;53.004;6.770;2022-12-07T10:59:02;4.80;99.90
54178;DHT22;40085;53.004;6.770;2022-12-07T11:04:24;4.90;99.90
54178;DHT22;40085;53.004;6.770;2022-12-07T11:07:13;5.00;99.90
54178;DHT22;40085;53.004;6.770;2022-12-07T11:15:29;5.20;99.90
54178;DHT22;40085;53.004;6.770;2022-12-07T11:18:12;5.20;99.90
54178;DHT22;40085;53.004;6.770;2022-12-07T11:20:51;5.20;99.90
54178;DHT22;40085;53.004;6.770;2022-12-07T11:26:07;5.20;99.90
54178;DHT22;40085;53.004;6.770;2022-12-07T11:34:35;5.10;99.90
54178;DHT22;40085;53.004;6.770;2022-12-07T11:37:03;5.00;99.90
54178;DHT22;40085;53.004;6.770;2022-12-07T11:39:44;5.00;99.90
54178;DHT22;40085;53.004;6.770;2022-12-07T11:42:27;4.90;99.90
54178;DHT22;40085;53.004;6.770;2022-12-07T11:44:59;4.70;99.90
54178;DHT22;40085;53.004;6.770;2022-12-07T11:47:32;4.60;99.90
54178;DHT22;40085;53.004;6.770;2022-12-07T11:53:17;4.30;99.90
54178;DHT22;40085;53.004;6.770;2022-12-07T11:55:30;4.20;99.90
54178;DHT22;40085;53.004;6.770;2022-12-07T12:01:23;4.20;99.90
54178;DHT22;40085;53.004;6.770;2022-12-07T12:03:53;4.20;99.90
54178;DHT22;40085;53.004;6.770;2022-12-07T12:06:22;4.30;99.90
54178;DHT22;40085;53.004;6.770;2022-12-07T12:14:18;4.50;99.90
54178;DHT22;40085;53.004;6.770;2022-12-07T12:16:58;4.60;99.90
54178;DHT22;40085;53.004;6.770;2022-12-07T12:19:35;4.70;99.90
54178;DHT22;40085;53.004;6.770;2022-12-07T12:22:17;4.80;99.90
54178;DHT22;40085;53.004;6.770;2022-12-07T12:24:47;4.90;99.90
54178;DHT22;40085;53.004;6.770;2022-12-07T12:27:26;5.00;99.90
54178;DHT22;40085;53.004;6.770;2022-12-07T12:29:55;5.00;99.90
54178;DHT22;40085;53.004;6.770;2022-12-07T12:35:22;5.10;99.90
54178;DHT22;40085;53.004;6.770;2022-12-07T12:37:52;5.10;99.90
54178;DHT22;40085;53.004;6.770;2022-12-07T12:42:55;5.10;99.90
54178;DHT22;40085;53.004;6.770;2022-12-07T12:45:29;5.10;99.90
54178;DHT22;40085;53.004;6.770;2022-12-07T12:48:06;5.10;99.90
54178;DHT22;40085;53.004;6.770;2022-12-07T12:54:04;5.00;99.90
54178;DHT22;40085;53.004;6.770;2022-12-07T12:59:33;5.00;99.90
54178;DHT22;40085;53.004;6.770;2022-12-07T13:02:32;5.00;99.90
54178;DHT22;40085;53.004;6.770;2022-12-07T13:15:48;5.20;99.90
54178;DHT22;40085;53.004;6.770;2022-12-07T13:29:16;5.00;99.90
54178;DHT22;40085;53.004;6.770;2022-12-07T13:31:47;4.90;99.90
54178;DHT22;40085;53.004;6.770;2022-12-07T13:34:34;4.90;99.90
54178;DHT22;40085;53.004;6.770;2022-12-07T13:37:08;4.70;99.90
54178;DHT22;40085;53.004;6.770;2022-12-07T13:39:49;4.70;99.90
54178;DHT22;40085;53.004;6.770;2022-12-07T13:44:47;4.60;99.90
54178;DHT22;40085;53.004;6.770;2022-12-07T13:47:39;4.50;99.90
54178;DHT22;40085;53.004;6.770;2022-12-07T13:50:52;4.50;99.90
54178;DHT22;40085;53.004;6.770;2022-12-07T13:53:18;4.40;99.90
54178;DHT22;40085;53.004;6.770;2022-12-07T13:55:46;4.40;99.90
54178;DHT22;40085;53.004;6.770;2022-12-07T13:58:13;4.30;99.90
54178;DHT22;40085;53.004;6.770;2022-12-07T14:00:40;4.20;99.90
54178;DHT22;40085;53.004;6.770;2022-12-07T14:05:42;4.10;99.90
54178;DHT22;40085;53.004;6.770;2022-12-07T14:10:39;4.30;99.90
54178;DHT22;40085;53.004;6.770;2022-12-07T14:15:51;4.00;99.90
54178;DHT22;40085;53.004;6.770;2022-12-07T14:23:29;4.00;99.90
54178;DHT22;40085;53.004;6.770;2022-12-07T14:26:11;4.00;99.90
54178;DHT22;40085;53.004;6.770;2022-12-07T14:28:38;4.00;99.90
54178;DHT22;40085;53.004;6.770;2022-12-07T14:31:14;4.00;99.90
54178;DHT22;40085;53.004;6.770;2022-12-07T14:33:40;4.00;99.90
54178;DHT22;40085;53.004;6.770;2022-12-07T14:36:09;3.90;99.90
54178;DHT22;40085;53.004;6.770;2022-12-07T14:38:34;3.90;99.90
54178;DHT22;40085;53.004;6.770;2022-12-07T14:41:00;3.80;99.90
54178;DHT22;40085;53.004;6.770;2022-12-07T14:43:45;3.80;99.90
54178;DHT22;40085;53.004;6.770;2022-12-07T14:46:10;3.70;99.90
54178;DHT22;40085;53.004;6.770;2022-12-07T14:48:36;3.70;99.90
54178;DHT22;40085;53.004;6.770;2022-12-07T14:51:02;3.60;99.90
54178;DHT22;40085;53.004;6.770;2022-12-07T14:53:33;3.60;99.90
54178;DHT22;40085;53.004;6.770;2022-12-07T14:56:00;3.50;99.90
54178;DHT22;40085;53.004;6.770;2022-12-07T14:58:26;3.50;99.90
54178;DHT22;40085;53.004;6.770;2022-12-07T15:00:51;3.50;99.90
54178;DHT22;40085;53.004;6.770;2022-12-07T15:03:17;3.50;99.90
54178;DHT22;40085;53.004;6.770;2022-12-07T15:05:42;3.40;99.90
54178;DHT22;40085;53.004;6.770;2022-12-07T15:08:12;3.50;99.90
54178;DHT22;40085;53.004;6.770;2022-12-07T15:10:38;3.50;99.90
54178;DHT22;40085;53.004;6.770;2022-12-07T15:13:06;3.50;99.90
54178;DHT22;40085;53.004;6.770;2022-12-07T15:15:52;3.60;99.90
54178;DHT22;40085;53.004;6.770;2022-12-07T15:18:18;3.60;99.90
54178;DHT22;40085;53.004;6.770;2022-12-07T15:20:44;3.70;99.90
54178;DHT22;40085;53.004;6.770;2022-12-07T15:23:11;3.70;99.90
54178;DHT22;40085;53.004;6.770;2022-12-07T15:25:40;3.70;99.90
54178;DHT22;40085;53.004;6.770;2022-12-07T15:28:05;3.70;99.90
54178;DHT22;40085;53.004;6.770;2022-12-07T15:30:31;3.60;99.90
54178;DHT22;40085;53.004;6.770;2022-12-07T15:32:56;3.60;99.90
54178;DHT22;40085;53.004;6.770;2022-12-07T15:35:22;3.60;99.90
54178;DHT22;40085;53.004;6.770;2022-12-07T15:37:47;3.60;99.90
54178;DHT22;40085;53.004;6.770;2022-12-07T15:40:13;3.50;99.90
54178;DHT22;40085;53.004;6.770;2022-12-07T15:42:39;3.50;99.90
54178;DHT22;40085;53.004;6.770;2022-12-07T15:45:06;3.40;99.90
54178;DHT22;40085;53.004;6.770;2022-12-07T15:47:35;3.40;99.90
54178;DHT22;40085;53.004;6.770;2022-12-07T15:50:05;3.40;99.90
54178;DHT22;40085;53.004;6.770;2022-12-07T15:52:31;3.30;99.90
54178;DHT22;40085;53.004;6.770;2022-12-07T15:54:57;3.30;99.90
54178;DHT22;40085;53.004;6.770;2022-12-07T15:57:23;3.20;99.90
54178;DHT22;40085;53.004;6.770;2022-12-07T15:59:48;3.20;99.90
54178;DHT22;40085;53.004;6.770;2022-12-07T16:02:14;3.20;99.90
54178;DHT22;40085;53.004;6.770;2022-12-07T16:04:39;3.20;99.90
54178;DHT22;40085;53.004;6.770;2022-12-07T16:07:05;3.20;99.90
54178;DHT22;40085;53.004;6.770;2022-12-07T16:09:31;3.10;99.90
54178;DHT22;40085;53.004;6.770;2022-12-07T16:11:57;3.10;99.90
54178;DHT22;40085;53.004;6.770;2022-12-07T16:14:23;3.10;99.90
54178;DHT22;40085;53.004;6.770;2022-12-07T16:16:49;3.10;99.90
54178;DHT22;40085;53.004;6.770;2022-12-07T16:19:14;3.10;99.90
54178;DHT22;40085;53.004;6.770;2022-12-07T16:21:40;3.10;99.90
54178;DHT22;40085;53.004;6.770;2022-12-07T16:24:08;3.10;99.90
54178;DHT22;40085;53.004;6.770;2022-12-07T16:26:33;3.10;99.90
54178;DHT22;40085;53.004;6.770;2022-12-07T16:28:59;3.10;99.90
54178;DHT22;40085;53.004;6.770;2022-12-07T16:31:27;3.10;99.90
54178;DHT22;40085;53.004;6.770;2022-12-07T16:33:55;3.10;99.90
54178;DHT22;40085;53.004;6.770;2022-12-07T16:36:21;3.10;99.90
54178;DHT22;40085;53.004;6.770;2022-12-07T16:38:47;3.10;99.90
54178;DHT22;40085;53.004;6.770;2022-12-07T16:41:13;3.10;99.90
54178;DHT22;40085;53.004;6.770;2022-12-07T16:43:40;3.10;99.90
54178;DHT22;40085;53.004;6.770;2022-12-07T16:46:06;3.20;99.90
54178;DHT22;40085;53.004;6.770;2022-12-07T16:48:35;3.20;99.90
54178;DHT22;40085;53.004;6.770;2022-12-07T16:51:06;3.20;99.90
54178;DHT22;40085;53.004;6.770;2022-12-07T16:53:35;3.20;99.90
54178;DHT22;40085;53.004;6.770;2022-12-07T16:56:01;3.20;99.90
54178;DHT22;40085;53.004;6.770;2022-12-07T16:58:26;3.20;99.90
54178;DHT22;40085;53.004;6.770;2022-12-07T17:00:52;3.30;99.90
54178;DHT22;40085;53.004;6.770;2022-12-07T17:03:18;3.30;99.90
54178;DHT22;40085;53.004;6.770;2022-12-07T17:05:45;3.30;99.90
54178;DHT22;40085;53.004;6.770;2022-12-07T17:08:12;3.30;99.90
54178;DHT22;40085;53.004;6.770;2022-12-07T17:10:40;3.30;99.90
54178;DHT22;40085;53.004;6.770;2022-12-07T17:13:07;3.30;99.90
54178;DHT22;40085;53.004;6.770;2022-12-07T17:15:59;3.40;99.90
54178;DHT22;40085;53.004;6.770;2022-12-07T17:18:27;3.40;99.90
54178;DHT22;40085;53.004;6.770;2022-12-07T17:20:53;3.30;99.90
54178;DHT22;40085;53.004;6.770;2022-12-07T17:23:19;3.40;99.90
54178;DHT22;40085;53.004;6.770;2022-12-07T17:25:45;3.40;99.90
54178;DHT22;40085;53.004;6.770;2022-12-07T17:28:11;3.30;99.90
54178;DHT22;40085;53.004;6.770;2022-12-07T17:30:37;3.40;99.90
54178;DHT22;40085;53.004;6.770;2022-12-07T17:33:03;3.40;99.90
54178;DHT22;40085;53.004;6.770;2022-12-07T17:35:28;3.40;99.90
54178;DHT22;40085;53.004;6.770;2022-12-07T17:37:54;3.40;99.90
54178;DHT22;40085;53.004;6.770;2022-12-07T17:40:21;3.40;99.90
54178;DHT22;40085;53.004;6.770;2022-12-07T17:42:46;3.40;99.90
54178;DHT22;40085;53.004;6.770;2022-12-07T17:45:15;3.40;99.90